Time;durP1;ratioP1;P1;durP2;ratioP2;P2;SDS_P1;SDS_P2;PMS_P1;PMS_P2;Temp;Humidity;BMP_temperature;BMP_pressure;BME280_temperature;BME280_humidity;BME280_pressure;Samples;Min_cycle;Max_cycle;Signal;HPM_P1;HPM_P2
2022/11/18 00:00:47;;;;;;;37.17;21.55;;;11.50;85.40;;;;;;5055081;28;20067;-16
2022/11/18 00:03:14;;;;;;;35.80;20.40;;;11.50;85.40;;;;;;5055065;28;20029;-14
2022/11/18 00:05:40;;;;;;;47.83;25.90;;;11.60;85.40;;;;;;5055105;28;20025;-18
2022/11/18 00:08:06;;;;;;;47.63;25.25;;;11.60;85.30;;;;;;5054665;28;20036;-14
2022/11/18 00:10:32;;;;;;;48.88;27.02;;;11.60;85.20;;;;;;5054546;28;20103;-16
2022/11/18 00:15:42;;;;;;;41.92;22.25;;;11.50;85.20;;;;;;5054634;28;20566;-16
2022/11/18 00:18:08;;;;;;;41.78;23.95;;;11.50;85.20;;;;;;5054548;28;20021;-15
2022/11/18 00:20:34;;;;;;;48.85;26.55;;;11.60;85.20;;;;;;5054362;28;20082;-18
2022/11/18 00:23:00;;;;;;;47.25;23.70;;;11.50;85.60;;;;;;5054179;28;20024;-18
2022/11/18 00:25:26;;;;;;;47.85;26.52;;;11.50;86.00;;;;;;5054215;28;20052;-18
2022/11/18 00:27:53;;;;;;;46.55;25.52;;;11.50;85.60;;;;;;5054628;28;20036;-15
2022/11/18 00:30:19;;;;;;;56.55;27.85;;;11.50;85.50;;;;;;5054129;28;20527;-18
2022/11/18 00:32:45;;;;;;;36.58;21.35;;;11.50;85.50;;;;;;5053998;28;20056;-17
2022/11/18 00:35:11;;;;;;;36.42;21.40;;;11.40;85.60;;;;;;5053662;28;20044;-17
2022/11/18 00:37:36;;;;;;;41.47;21.83;;;11.40;85.70;;;;;;5052893;28;20388;-16
2022/11/18 00:40:03;;;;;;;41.42;23.35;;;11.40;85.70;;;;;;5054319;28;20032;-15
2022/11/18 00:45:13;;;;;;;48.88;24.63;;;11.50;85.60;;;;;;5054363;28;20067;-16
2022/11/18 00:47:39;;;;;;;43.47;25.10;;;11.50;85.80;;;;;;5053921;28;20064;-15
2022/11/18 00:50:05;;;;;;;49.92;27.27;;;11.50;86.20;;;;;;5053763;28;20032;-17
2022/11/18 00:52:31;;;;;;;50.42;26.45;;;11.50;86.10;;;;;;5053895;28;20024;-15
2022/11/18 00:54:57;;;;;;;54.55;29.15;;;11.50;85.80;;;;;;5053274;28;20064;-16
2022/11/18 00:57:23;;;;;;;51.92;27.13;;;11.40;86.00;;;;;;5053829;28;20029;-16
2022/11/18 00:59:49;;;;;;;46.53;25.02;;;11.40;86.00;;;;;;5053731;28;20028;-17
2022/11/18 01:02:15;;;;;;;48.92;26.10;;;11.40;86.00;;;;;;5054038;28;20032;-15
2022/11/18 01:04:41;;;;;;;49.65;25.75;;;11.40;86.10;;;;;;5053768;28;20033;-16
2022/11/18 01:07:07;;;;;;;38.30;22.60;;;11.40;86.10;;;;;;5053468;28;20039;-16
2022/11/18 01:09:32;;;;;;;38.70;22.08;;;11.40;86.30;;;;;;5053612;28;20033;-16
2022/11/18 01:14:43;;;;;;;40.40;21.67;;;11.40;86.80;;;;;;5053549;28;20036;-15
2022/11/18 01:17:09;;;;;;;31.95;19.20;;;11.40;86.90;;;;;;5053559;28;20017;-17
2022/11/18 01:19:35;;;;;;;34.83;19.30;;;11.40;86.90;;;;;;5053399;28;20037;-16
2022/11/18 01:22:02;;;;;;;36.13;19.55;;;11.40;86.70;;;;;;5053361;28;20099;-16
2022/11/18 01:24:36;;;;;;;44.97;23.38;;;11.40;86.60;;;;;;5053536;28;20055;-15
2022/11/18 01:27:03;;;;;;;47.88;25.05;;;11.50;86.50;;;;;;5053194;28;20025;-16
2022/11/18 01:29:29;;;;;;;51.25;25.60;;;11.50;86.40;;;;;;5053194;28;20370;-15
2022/11/18 01:31:55;;;;;;;46.78;25.98;;;11.50;86.40;;;;;;5053474;28;20028;-14
2022/11/18 01:34:21;;;;;;;44.22;24.48;;;11.50;86.40;;;;;;5053213;28;20029;-15
2022/11/18 01:36:46;;;;;;;39.97;21.25;;;11.50;86.40;;;;;;5053450;28;20044;-14
2022/11/18 01:39:12;;;;;;;35.17;19.98;;;11.50;86.50;;;;;;5053116;28;20029;-14
2022/11/18 01:41:38;;;;;;;34.28;19.45;;;11.50;86.50;;;;;;5052994;28;20024;-14
2022/11/18 01:44:25;;;;;;;28.23;16.77;;;11.60;86.60;;;;;;5053323;28;20115;-14
2022/11/18 01:46:51;;;;;;;28.90;16.25;;;11.60;86.60;;;;;;5052730;28;20040;-16
2022/11/18 01:49:17;;;;;;;27.67;16.45;;;11.60;86.50;;;;;;5068554;28;20045;-16
2022/11/18 01:51:53;;;;;;;29.27;15.70;;;11.60;86.50;;;;;;5052960;28;20473;-16
2022/11/18 01:54:34;;;;;;;31.23;19.48;;;11.60;86.40;;;;;;5052825;28;20049;-16
2022/11/18 01:57:05;;;;;;;30.55;18.27;;;11.70;86.30;;;;;;5052780;28;20032;-17
2022/11/18 01:59:36;;;;;;;31.02;17.30;;;11.70;86.40;;;;;;5052936;28;20461;-15
2022/11/18 02:02:07;;;;;;;40.15;21.27;;;11.60;86.30;;;;;;5053163;28;20021;-16
2022/11/18 02:04:34;;;;;;;41.17;22.38;;;11.60;86.30;;;;;;5053018;28;20420;-15
2022/11/18 02:07:01;;;;;;;39.30;22.05;;;11.60;86.20;;;;;;5052709;28;20052;-17
2022/11/18 02:09:28;;;;;;;43.38;24.00;;;11.60;86.20;;;;;;5052587;28;20032;-17
2022/11/18 02:11:54;;;;;;;43.10;23.27;;;11.60;86.20;;;;;;5053059;28;20035;-15
2022/11/18 02:14:22;;;;;;;33.47;18.95;;;11.60;86.20;;;;;;5052723;28;20029;-15
2022/11/18 02:16:51;;;;;;;33.00;18.98;;;11.60;86.30;;;;;;5052844;28;20058;-16
2022/11/18 02:19:35;;;;;;;30.10;17.77;;;11.60;86.30;;;;;;5052985;28;20239;-16
2022/11/18 02:22:45;;;;;;;34.53;19.73;;;11.60;86.30;;;;;;5053033;28;20029;-15
2022/11/18 02:25:14;;;;;;;34.05;19.27;;;11.60;86.40;;;;;;5035314;28;20025;-15
2022/11/18 02:27:55;;;;;;;38.60;21.35;;;11.60;86.30;;;;;;5052649;28;20037;-17
2022/11/18 02:30:21;;;;;;;43.97;23.42;;;11.60;86.20;;;;;;5052527;28;20033;-15
2022/11/18 02:33:07;;;;;;;31.27;17.52;;;11.60;86.20;;;;;;5052910;28;20048;-18
2022/11/18 02:35:39;;;;;;;30.85;17.70;;;11.50;86.20;;;;;;5052700;28;20022;-16
2022/11/18 02:38:11;;;;;;;33.10;18.35;;;11.50;86.40;;;;;;5052794;28;20111;-18
2022/11/18 02:40:43;;;;;;;30.23;17.05;;;11.60;86.40;;;;;;5052688;28;20021;-15
2022/11/18 02:43:12;;;;;;;29.13;16.67;;;11.60;86.40;;;;;;5052702;28;20112;-15
2022/11/18 02:45:43;;;;;;;26.63;15.70;;;11.60;86.40;;;;;;5052396;28;20037;-18
2022/11/18 02:48:12;;;;;;;31.45;17.00;;;11.60;86.50;;;;;;5053117;28;20018;-15
2022/11/18 02:50:41;;;;;;;44.22;21.50;;;11.60;86.50;;;;;;5052280;28;20040;-17
2022/11/18 02:53:12;;;;;;;32.42;17.70;;;11.60;86.50;;;;;;5052187;28;20059;-15
2022/11/18 02:55:40;;;;;;;32.63;18.52;;;11.60;86.50;;;;;;5052114;28;20408;-15
2022/11/18 02:58:08;;;;;;;26.42;15.35;;;11.60;86.40;;;;;;5055101;28;20033;-15
2022/11/18 03:00:35;;;;;;;32.70;17.95;;;11.60;86.40;;;;;;5055911;28;20112;-16
2022/11/18 03:03:25;;;;;;;30.98;17.52;;;11.60;86.50;;;;;;5055678;28;20032;-17
2022/11/18 03:06:20;;;;;;;39.88;21.50;;;11.70;86.50;;;;;;5056247;28;20039;-15
2022/11/18 03:08:51;;;;;;;41.60;21.95;;;11.60;86.50;;;;;;5071290;28;20060;-15
2022/11/18 03:11:19;;;;;;;35.85;18.58;;;11.60;86.50;;;;;;5055664;28;20036;-14
2022/11/18 03:14:09;;;;;;;33.38;18.25;;;11.60;86.50;;;;;;5055977;28;20059;-18
2022/11/18 03:16:40;;;;;;;32.70;17.77;;;11.60;86.50;;;;;;5056098;28;20028;-17
2022/11/18 03:19:30;;;;;;;28.73;15.85;;;11.60;86.50;;;;;;5055501;28;20028;-15
2022/11/18 03:22:17;;;;;;;28.15;16.33;;;11.60;86.50;;;;;;5056085;28;20064;-15
2022/11/18 03:25:12;;;;;;;29.45;15.13;;;11.60;86.50;;;;;;5055836;28;20025;-18
2022/11/18 03:27:49;;;;;;;26.75;14.50;;;11.60;86.40;;;;;;5055854;28;20033;-16
2022/11/18 03:30:19;;;;;;;33.13;16.70;;;11.60;86.40;;;;;;5055460;28;20064;-15
2022/11/18 03:32:51;;;;;;;30.30;16.10;;;11.60;86.40;;;;;;5055334;28;20035;-15
2022/11/18 03:35:23;;;;;;;34.13;18.65;;;11.60;86.30;;;;;;5055916;28;20025;-17
2022/11/18 03:38:07;;;;;;;35.95;19.33;;;11.60;86.20;;;;;;5055289;28;20029;-17
2022/11/18 03:40:37;;;;;;;33.58;17.33;;;11.60;86.20;;;;;;5055549;28;20071;-18
2022/11/18 03:43:09;;;;;;;31.05;16.67;;;11.60;86.10;;;;;;5055037;28;20090;-15
2022/11/18 03:45:46;;;;;;;35.80;18.60;;;11.50;86.10;;;;;;5055536;28;20111;-17
2022/11/18 03:48:24;;;;;;;39.35;20.83;;;11.50;86.20;;;;;;5056255;28;20053;-15
2022/11/18 03:51:13;;;;;;;35.30;18.38;;;11.40;86.20;;;;;;5055122;28;20072;-17
2022/11/18 03:53:44;;;;;;;41.08;21.98;;;11.50;86.20;;;;;;5053265;28;20412;-16
2022/11/18 03:56:20;;;;;;;42.60;20.05;;;11.40;86.30;;;;;;5054784;28;20111;-17
2022/11/18 03:59:05;;;;;;;38.50;21.25;;;11.40;86.30;;;;;;5055233;28;20075;-15
2022/11/18 04:01:46;;;;;;;38.58;22.05;;;11.40;86.30;;;;;;5054908;28;20033;-17
2022/11/18 04:04:12;;;;;;;36.03;18.35;;;11.40;86.30;;;;;;5070334;28;20021;-14
2022/11/18 04:07:08;;;;;;;37.13;19.65;;;11.30;86.40;;;;;;5055083;28;20031;-17
2022/11/18 04:09:41;;;;;;;37.20;19.70;;;11.40;86.40;;;;;;5054904;28;20442;-15
2022/11/18 04:12:13;;;;;;;38.90;21.27;;;11.30;86.50;;;;;;5054716;28;20029;-15
2022/11/18 04:14:42;;;;;;;37.28;20.58;;;11.30;86.40;;;;;;5054518;28;20317;-17
2022/11/18 04:17:11;;;;;;;34.33;19.88;;;11.30;86.50;;;;;;5069783;28;20079;-17
2022/11/18 04:19:37;;;;;;;36.22;19.48;;;11.30;86.50;;;;;;5054550;28;20520;-17
2022/11/18 04:22:03;;;;;;;33.28;18.25;;;11.30;86.60;;;;;;5054469;28;20082;-16
2022/11/18 04:24:29;;;;;;;30.73;16.00;;;11.40;86.60;;;;;;5054429;28;20107;-16
2022/11/18 04:26:55;;;;;;;27.40;16.30;;;11.40;86.60;;;;;;5054397;28;20120;-17
2022/11/18 04:29:21;;;;;;;31.00;17.00;;;11.40;86.70;;;;;;5054172;28;20033;-17
2022/11/18 04:31:47;;;;;;;28.48;15.55;;;11.40;86.70;;;;;;5054254;28;20040;-18
2022/11/18 04:34:13;;;;;;;23.48;13.48;;;11.40;86.60;;;;;;5069642;28;20025;-16
2022/11/18 04:36:39;;;;;;;34.00;16.63;;;11.50;86.60;;;;;;5054112;28;20396;-15
2022/11/18 04:39:05;;;;;;;32.05;17.17;;;11.40;86.60;;;;;;5053967;28;20023;-17
2022/11/18 04:44:16;;;;;;;24.60;13.88;;;11.50;86.60;;;;;;5054172;28;20031;-15
2022/11/18 04:46:43;;;;;;;26.38;14.27;;;11.50;86.60;;;;;;5054020;28;20096;-15
2022/11/18 04:49:12;;;;;;;37.00;19.80;;;11.50;86.60;;;;;;5053632;28;20033;-16
2022/11/18 04:51:40;;;;;;;30.02;16.08;;;11.60;86.60;;;;;;5054179;28;20037;-16
2022/11/18 04:54:06;;;;;;;27.63;16.23;;;11.50;86.50;;;;;;5053930;28;20057;-16
2022/11/18 04:56:32;;;;;;;31.00;17.15;;;11.50;86.50;;;;;;5054093;28;20115;-17
2022/11/18 04:59:02;;;;;;;33.90;19.17;;;11.60;86.50;;;;;;5053654;28;20033;-15
2022/11/18 05:01:29;;;;;;;27.17;15.85;;;11.50;86.40;;;;;;5053863;28;20377;-16
2022/11/18 05:03:55;;;;;;;33.72;18.92;;;11.50;86.40;;;;;;5053683;28;20427;-17
2022/11/18 05:06:22;;;;;;;23.83;14.40;;;11.40;86.40;;;;;;5053686;28;20548;-14
2022/11/18 05:08:48;;;;;;;22.58;13.48;;;11.40;86.40;;;;;;5053615;28;20074;-16
2022/11/18 05:13:59;;;;;;;23.63;13.43;;;11.40;86.50;;;;;;5053875;28;20082;-17
2022/11/18 05:16:25;;;;;;;28.17;15.77;;;11.40;86.50;;;;;;5054004;28;20053;-15
2022/11/18 05:18:51;;;;;;;34.55;16.77;;;11.30;86.50;;;;;;5053210;28;20064;-15
2022/11/18 05:21:17;;;;;;;38.55;21.50;;;11.30;86.40;;;;;;5053313;28;20041;-16
2022/11/18 05:23:43;;;;;;;39.03;21.63;;;11.30;86.40;;;;;;5053308;28;20496;-15
2022/11/18 05:26:10;;;;;;;31.55;18.42;;;11.20;86.40;;;;;;5053452;28;20017;-17
2022/11/18 05:28:37;;;;;;;29.10;16.02;;;11.20;86.40;;;;;;5053316;28;20503;-18
2022/11/18 05:31:08;;;;;;;39.83;21.42;;;11.20;86.40;;;;;;5053222;28;20059;-16
2022/11/18 05:33:34;;;;;;;36.90;20.10;;;11.10;86.50;;;;;;5053232;28;20110;-17
2022/11/18 05:36:15;;;;;;;35.03;18.25;;;11.10;86.50;;;;;;5053172;28;20388;-17
2022/11/18 05:38:41;;;;;;;25.67;14.10;;;11.10;86.50;;;;;;5053132;28;20036;-15
2022/11/18 05:41:08;;;;;;;23.27;14.18;;;11.10;86.50;;;;;;5053132;28;20056;-15
2022/11/18 05:43:35;;;;;;;24.30;14.18;;;11.10;86.60;;;;;;5053528;28;20062;-15
2022/11/18 05:46:02;;;;;;;23.95;13.60;;;11.00;86.60;;;;;;5053009;28;20050;-16
2022/11/18 05:48:29;;;;;;;28.23;15.98;;;11.00;86.60;;;;;;5052958;28;20070;-15
2022/11/18 05:50:55;;;;;;;37.10;20.58;;;11.00;86.60;;;;;;5052802;28;20484;-14
2022/11/18 05:53:23;;;;;;;34.03;18.30;;;11.00;86.50;;;;;;5053306;28;20025;-16
2022/11/18 05:56:14;;;;;;;36.15;19.58;;;11.00;86.50;;;;;;5052706;28;20077;-15
2022/11/18 05:58:40;;;;;;;37.08;19.80;;;10.90;86.50;;;;;;5053111;28;20420;-15
2022/11/18 06:01:08;;;;;;;37.33;21.35;;;10.90;86.50;;;;;;5053007;28;20021;-15
2022/11/18 06:03:39;;;;;;;34.17;18.40;;;10.90;86.50;;;;;;5053160;28;20025;-17
2022/11/18 06:06:08;;;;;;;37.88;20.40;;;10.90;86.50;;;;;;5053177;28;20024;-19
2022/11/18 06:08:44;;;;;;;41.80;22.30;;;10.90;86.60;;;;;;5052820;28;20025;-18
2022/11/18 06:11:14;;;;;;;46.13;24.15;;;10.90;86.70;;;;;;5052803;28;20484;-16
2022/11/18 06:13:49;;;;;;;45.15;24.15;;;10.90;86.60;;;;;;5052856;28;20032;-15
2022/11/18 06:16:22;;;;;;;52.67;25.70;;;10.90;86.60;;;;;;5053096;28;20036;-18
2022/11/18 06:18:47;;;;;;;38.63;21.27;;;10.90;86.60;;;;;;5052635;28;20481;-17
2022/11/18 06:21:14;;;;;;;45.25;23.92;;;10.90;86.60;;;;;;5053119;28;20040;-15
2022/11/18 06:23:41;;;;;;;45.33;24.58;;;10.90;86.70;;;;;;5052777;28;20427;-16
2022/11/18 06:26:08;;;;;;;47.10;23.88;;;11.00;86.90;;;;;;5052826;28;20017;-14
2022/11/18 06:28:35;;;;;;;42.20;23.42;;;11.00;86.80;;;;;;5052942;28;20048;-15
2022/11/18 06:31:01;;;;;;;48.17;25.75;;;11.00;86.70;;;;;;5052614;28;20078;-15
2022/11/18 06:33:27;;;;;;;45.85;24.58;;;11.00;86.60;;;;;;5055960;28;20044;-15
2022/11/18 06:35:53;;;;;;;39.72;20.23;;;11.10;86.60;;;;;;5056474;28;20033;-15
2022/11/18 06:38:22;;;;;;;47.65;24.95;;;11.10;86.80;;;;;;5056450;28;20078;-15
2022/11/18 06:40:47;;;;;;;48.55;23.45;;;11.10;86.80;;;;;;5056010;28;20025;-16
2022/11/18 06:48:43;;;;;;;48.28;24.08;;;11.10;86.70;;;;;;5056361;28;20043;-15
2022/11/18 06:51:10;;;;;;;48.67;24.85;;;11.20;86.70;;;;;;5055858;28;20033;-15
2022/11/18 06:53:36;;;;;;;44.05;22.40;;;11.20;86.60;;;;;;5056467;28;20029;-18
2022/11/18 06:56:07;;;;;;;47.55;23.98;;;11.20;86.60;;;;;;5055901;28;20052;-16
2022/11/18 06:58:34;;;;;;;50.75;24.95;;;11.20;86.60;;;;;;5056714;28;20082;-17
2022/11/18 07:01:17;;;;;;;46.83;25.05;;;11.30;86.70;;;;;;5056651;28;20342;-17
2022/11/18 07:03:45;;;;;;;52.25;27.15;;;11.30;86.60;;;;;;5056401;28;20029;-16
2022/11/18 07:06:14;;;;;;;49.90;27.20;;;11.30;86.60;;;;;;5056276;28;20496;-16
2022/11/18 07:08:41;;;;;;;47.83;23.90;;;11.40;86.60;;;;;;5055845;28;20032;-18
2022/11/18 07:11:11;;;;;;;50.38;24.83;;;11.40;86.60;;;;;;5055555;28;20021;-17
2022/11/18 07:13:37;;;;;;;50.25;25.30;;;11.40;86.60;;;;;;5056070;28;20116;-17
2022/11/18 07:16:11;;;;;;;46.92;24.88;;;11.40;86.60;;;;;;5056120;28;20044;-17
2022/11/18 07:18:40;;;;;;;45.78;23.90;;;11.40;86.60;;;;;;5056012;28;20510;-17
2022/11/18 07:21:11;;;;;;;42.67;22.05;;;11.40;86.60;;;;;;5055372;28;20476;-16
2022/11/18 07:23:38;;;;;;;49.97;25.40;;;11.40;86.70;;;;;;5055574;28;20066;-17
2022/11/18 07:26:04;;;;;;;47.85;26.00;;;11.40;86.80;;;;;;5055478;28;20033;-17
2022/11/18 07:28:31;;;;;;;47.05;24.55;;;11.50;86.70;;;;;;5055754;28;20021;-16
2022/11/18 07:31:04;;;;;;;43.47;23.45;;;11.50;86.70;;;;;;5055222;28;20388;-17
2022/11/18 07:33:31;;;;;;;42.08;22.75;;;11.60;86.60;;;;;;5055671;28;20039;-16
2022/11/18 07:36:27;;;;;;;48.75;25.20;;;11.50;86.70;;;;;;5055573;28;20028;-16
2022/11/18 07:38:53;;;;;;;44.65;22.52;;;11.60;86.60;;;;;;5033339;28;20056;-16
2022/11/18 07:41:21;;;;;;;33.85;19.65;;;11.60;86.60;;;;;;5033467;28;20493;-15
2022/11/18 07:43:50;;;;;;;48.67;24.95;;;11.60;86.60;;;;;;5033159;28;20029;-16
2022/11/18 07:46:26;;;;;;;39.42;21.52;;;11.70;86.70;;;;;;5033235;28;20029;-16
2022/11/18 07:48:55;;;;;;;35.97;18.63;;;11.70;86.60;;;;;;5032958;28;20022;-16
2022/11/18 07:51:29;;;;;;;35.03;19.70;;;11.80;86.70;;;;;;5033069;28;20033;-17
2022/11/18 07:53:55;;;;;;;37.58;20.88;;;11.80;86.80;;;;;;5032836;28;20022;-17
2022/11/18 07:56:23;;;;;;;37.95;20.77;;;11.90;86.70;;;;;;5033384;28;20564;-17
2022/11/18 07:58:55;;;;;;;39.63;21.48;;;11.90;86.70;;;;;;5033357;28;20041;-16
2022/11/18 08:01:24;;;;;;;34.67;19.42;;;12.00;86.40;;;;;;5032908;28;20024;-16
2022/11/18 08:03:50;;;;;;;31.75;18.40;;;12.10;86.30;;;;;;5033399;28;20124;-16
2022/11/18 08:06:18;;;;;;;28.75;16.70;;;12.20;86.30;;;;;;5032872;28;20022;-16
2022/11/18 08:08:45;;;;;;;38.03;19.83;;;12.30;86.20;;;;;;5032801;28;20147;-17
2022/11/18 08:11:14;;;;;;;30.88;17.83;;;12.40;86.10;;;;;;5032367;28;20034;-16
2022/11/18 08:13:41;;;;;;;30.80;17.00;;;12.50;86.00;;;;;;5032555;28;20132;-15
2022/11/18 08:16:20;;;;;;;26.63;17.05;;;12.50;85.90;;;;;;5048660;28;20068;-15
2022/11/18 08:18:47;;;;;;;30.55;17.77;;;12.60;85.70;;;;;;5054873;28;20025;-16
2022/11/18 08:21:15;;;;;;;27.50;15.88;;;12.80;85.60;;;;;;5129394;22;20041;-18
2022/11/18 08:23:41;;;;;;;26.35;15.60;;;12.90;85.40;;;;;;5074774;28;20052;-20
2022/11/18 08:26:10;;;;;;;28.40;15.93;;;12.90;85.00;;;;;;5074414;28;20077;-20
2022/11/18 08:28:36;;;;;;;26.38;15.70;;;13.10;84.70;;;;;;5074327;28;20112;-20
2022/11/18 08:31:10;;;;;;;28.58;16.27;;;13.10;84.40;;;;;;5074134;28;20020;-20
2022/11/18 08:33:36;;;;;;;;;;;13.10;84.20;;;;;;5074947;28;20036;-20
2022/11/18 08:36:20;;;;;;;29.88;16.42;;;13.20;84.30;;;;;;5074175;28;19908;-19
2022/11/18 08:38:46;;;;;;;29.20;17.10;;;13.40;84.20;;;;;;5074214;28;20024;-19
2022/11/18 08:41:16;;;;;;;27.85;16.60;;;13.40;84.10;;;;;;5074138;28;20037;-19
2022/11/18 08:43:42;;;;;;;29.23;16.85;;;13.60;84.10;;;;;;5074331;28;20107;-19
2022/11/18 08:46:08;;;;;;;29.45;17.60;;;13.70;83.40;;;;;;5074002;28;20016;-20
2022/11/18 08:48:34;;;;;;;31.10;17.10;;;13.70;83.20;;;;;;5072956;28;20430;-19
2022/11/18 08:51:01;;;;;;;29.17;17.23;;;13.60;83.00;;;;;;5073620;28;20507;-19
2022/11/18 08:53:27;;;;;;;28.02;16.20;;;13.60;83.00;;;;;;5073689;28;20032;-19
2022/11/18 08:55:58;;;;;;;26.05;16.38;;;13.40;82.80;;;;;;5071943;28;20016;-19
2022/11/18 08:58:25;;;;;;;25.77;15.48;;;13.40;83.10;;;;;;5073784;28;20533;-19
2022/11/18 09:00:51;;;;;;;27.10;16.17;;;13.30;83.30;;;;;;5073567;28;20083;-20
2022/11/18 09:03:18;;;;;;;28.35;16.30;;;13.20;83.40;;;;;;5072512;28;20028;-20
2022/11/18 09:05:44;;;;;;;28.77;16.25;;;13.20;83.50;;;;;;5073928;28;20031;-19
2022/11/18 09:08:10;;;;;;;25.67;15.23;;;13.30;83.60;;;;;;5073771;28;20487;-19
2022/11/18 09:10:37;;;;;;;27.02;16.20;;;13.30;83.60;;;;;;5072253;28;20482;-19
2022/11/18 09:13:03;;;;;;;27.70;16.05;;;13.30;83.70;;;;;;5073971;28;20487;-19
2022/11/18 09:15:30;;;;;;;28.75;16.25;;;13.40;83.50;;;;;;5073823;28;20025;-20
2022/11/18 09:17:56;;;;;;;31.38;16.52;;;13.40;83.50;;;;;;5074095;28;20431;-19
2022/11/18 09:20:23;;;;;;;29.92;18.38;;;13.50;83.40;;;;;;5073425;28;20115;-20
2022/11/18 09:22:49;;;;;;;34.95;19.80;;;13.60;83.10;;;;;;5072804;28;20127;-22
2022/11/18 09:25:15;;;;;;;35.38;19.25;;;13.70;83.00;;;;;;5072123;28;20140;-19
2022/11/18 09:27:42;;;;;;;37.20;21.48;;;13.90;82.60;;;;;;5073503;28;20085;-20
2022/11/18 09:30:08;;;;;;;39.13;21.95;;;14.20;82.20;;;;;;5073259;28;20108;-19
2022/11/18 09:32:34;;;;;;;36.20;21.63;;;14.30;81.70;;;;;;5072061;28;20422;-20
2022/11/18 09:35:00;;;;;;;38.95;22.45;;;14.40;81.30;;;;;;5073064;28;20535;-20
2022/11/18 09:37:26;;;;;;;37.85;21.85;;;14.40;81.20;;;;;;5073006;28;20119;-19
2022/11/18 09:39:52;;;;;;;36.35;20.55;;;14.40;81.20;;;;;;5073162;28;20032;-19
2022/11/18 09:42:21;;;;;;;38.38;23.00;;;14.40;81.10;;;;;;5073191;28;20024;-19
2022/11/18 09:45:16;;;;;;;39.90;23.45;;;14.40;80.90;;;;;;5073209;28;20043;-21
2022/11/18 09:47:43;;;;;;;39.28;23.08;;;14.40;80.60;;;;;;5073114;28;20109;-20
2022/11/18 09:50:19;;;;;;;35.33;20.27;;;14.40;80.90;;;;;;5073670;28;20031;-19
2022/11/18 09:53:02;;;;;;;35.67;19.65;;;14.50;80.90;;;;;;5073208;28;20054;-20
2022/11/18 09:55:30;;;;;;;42.83;23.42;;;14.60;80.80;;;;;;5073395;28;20025;-19
2022/11/18 09:57:58;;;;;;;38.20;23.35;;;14.60;80.70;;;;;;5125088;22;20056;-15
2022/11/18 10:00:30;;;;;;;38.35;22.42;;;14.70;80.70;;;;;;5073549;28;20025;-16
2022/11/18 10:03:01;;;;;;;41.22;23.10;;;14.70;80.40;;;;;;5073472;28;20020;-14
2022/11/18 10:05:31;;;;;;;32.85;19.67;;;14.70;80.30;;;;;;5073443;28;20086;-15
2022/11/18 10:08:15;;;;;;;30.30;17.90;;;14.70;80.60;;;;;;5077169;28;20032;-15
2022/11/18 10:11:07;;;;;;;38.15;21.75;;;14.80;80.80;;;;;;5077037;28;20507;-17
2022/11/18 10:13:50;;;;;;;41.70;22.45;;;15.00;80.70;;;;;;5054568;28;20040;-16
2022/11/18 10:16:25;;;;;;;38.30;23.23;;;15.00;80.10;;;;;;5054925;28;20506;-17
2022/11/18 10:19:02;;;;;;;41.60;21.95;;;15.00;79.70;;;;;;5054760;28;20079;-16
2022/11/18 10:21:28;;;;;;;45.50;23.38;;;15.00;79.70;;;;;;5055282;28;20063;-15
2022/11/18 10:24:01;;;;;;;38.78;22.23;;;15.00;79.80;;;;;;5054752;28;20037;-15
2022/11/18 10:26:39;;;;;;;37.38;22.00;;;15.00;79.80;;;;;;5054716;28;20403;-15
2022/11/18 10:29:08;;;;;;;32.47;19.10;;;15.10;79.90;;;;;;5054284;28;20528;-15
2022/11/18 10:31:38;;;;;;;32.90;21.08;;;15.20;79.70;;;;;;5054516;28;20037;-14
2022/11/18 10:34:04;;;;;;;35.92;20.25;;;15.30;79.50;;;;;;5054489;28;20021;-15
2022/11/18 10:36:33;;;;;;;39.53;23.02;;;15.50;79.40;;;;;;5054696;28;20544;-15
2022/11/18 10:39:25;;;;;;;37.60;22.77;;;15.80;79.20;;;;;;5054181;28;20100;-14
2022/11/18 10:41:53;;;;;;;37.33;21.10;;;16.40;78.50;;;;;;5051501;28;20037;-15
2022/11/18 10:44:38;;;;;;;43.70;23.63;;;16.80;77.20;;;;;;5054354;28;20036;-17
2022/11/18 10:47:25;;;;;;;42.70;23.88;;;17.30;75.50;;;;;;5054459;28;20029;-17
2022/11/18 10:49:54;;;;;;;39.95;24.60;;;17.40;74.70;;;;;;5060864;28;20040;-15
2022/11/18 10:52:20;;;;;;;42.42;24.50;;;17.60;74.60;;;;;;5076502;28;20170;-15
2022/11/18 10:55:11;;;;;;;42.10;23.63;;;17.70;73.80;;;;;;5076214;28;20523;-16
2022/11/18 10:57:42;;;;;;;33.75;20.10;;;17.70;73.60;;;;;;5076069;28;20052;-15
2022/11/18 11:00:36;;;;;;;34.20;21.40;;;17.80;73.90;;;;;;5076530;28;20017;-15
2022/11/18 11:03:20;;;;;;;35.75;21.58;;;18.20;73.90;;;;;;5074670;28;20046;-16
2022/11/18 11:05:46;;;;;;;36.65;22.52;;;18.60;70.80;;;;;;5076204;28;20029;-15
2022/11/18 11:08:22;;;;;;;35.55;22.15;;;18.90;70.00;;;;;;5076002;28;20017;-15
2022/11/18 11:10:58;;;;;;;37.08;22.05;;;19.20;69.60;;;;;;5075693;28;20067;-14
2022/11/18 11:13:28;;;;;;;35.40;20.95;;;19.50;68.60;;;;;;5075715;28;20400;-14
2022/11/18 11:15:58;;;;;;;38.10;23.05;;;19.70;67.50;;;;;;5076699;28;20075;-14
2022/11/18 11:18:40;;;;;;;35.03;21.60;;;19.80;67.00;;;;;;5075082;28;20025;-15
2022/11/18 11:21:13;;;;;;;32.40;20.23;;;19.80;67.20;;;;;;5075776;28;20100;-15
2022/11/18 11:23:40;;;;;;;37.30;22.00;;;19.70;66.90;;;;;;5075632;28;20052;-14
2022/11/18 11:26:21;;;;;;;32.40;20.75;;;19.80;66.20;;;;;;5075709;28;20024;-15
2022/11/18 11:29:00;;;;;;;32.90;21.00;;;19.60;66.40;;;;;;5075690;28;20031;-16
2022/11/18 11:31:59;;;;;;;34.63;21.58;;;19.30;66.50;;;;;;5075413;28;20025;-15
2022/11/18 11:34:38;;;;;;;33.92;20.65;;;19.00;66.80;;;;;;5075893;28;20098;-15
2022/11/18 11:37:14;;;;;;;32.22;19.73;;;18.90;68.20;;;;;;5075344;28;20019;-15
2022/11/18 11:40:02;;;;;;;36.55;21.27;;;19.00;68.10;;;;;;5075762;28;20042;-16
2022/11/18 11:42:46;;;;;;;36.05;22.08;;;19.30;66.70;;;;;;5075859;28;20013;-17
2022/11/18 11:45:58;;;;;;;36.58;21.98;;;19.50;66.60;;;;;;5075485;28;20029;-16
2022/11/18 11:48:37;;;;;;;32.35;20.83;;;19.40;65.80;;;;;;5075486;28;20440;-15
2022/11/18 11:51:21;;;;;;;34.63;20.63;;;19.10;66.20;;;;;;5075347;28;20040;-15
2022/11/18 11:54:08;;;;;;;32.95;19.40;;;19.00;66.20;;;;;;5075067;28;20033;-16
2022/11/18 11:57:01;;;;;;;32.65;19.50;;;18.90;66.10;;;;;;5075404;28;20035;-16
2022/11/18 11:59:45;;;;;;;29.88;17.98;;;18.80;66.30;;;;;;5074847;28;20106;-16
2022/11/18 12:02:26;;;;;;;30.52;18.92;;;18.70;65.80;;;;;;5075045;28;20032;-15
2022/11/18 12:04:59;;;;;;;32.88;18.25;;;18.80;66.60;;;;;;5074712;28;20391;-15
2022/11/18 12:07:32;;;;;;;34.72;19.60;;;18.90;66.90;;;;;;5075119;28;20025;-14
2022/11/18 12:10:17;;;;;;;32.88;20.20;;;19.20;65.80;;;;;;5074746;28;20033;-16
2022/11/18 12:12:53;;;;;;;35.28;20.85;;;19.50;64.90;;;;;;5074828;28;20028;-14
2022/11/18 12:15:34;;;;;;;41.35;22.95;;;19.70;63.70;;;;;;5074671;28;20017;-15
2022/11/18 12:18:37;;;;;;;33.10;19.30;;;19.70;64.20;;;;;;5075017;28;20024;-15
2022/11/18 12:21:03;;;;;;;27.52;16.55;;;19.60;64.60;;;;;;5074642;28;20419;-15
2022/11/18 12:23:31;;;;;;;30.23;18.25;;;19.70;65.40;;;;;;5074536;28;20021;-16
2022/11/18 12:26:10;;;;;;;32.13;18.80;;;19.90;64.70;;;;;;5074511;28;20028;-15
2022/11/18 12:28:40;;;;;;;33.22;19.98;;;20.00;63.20;;;;;;5074233;28;20021;-15
2022/11/18 12:31:17;;;;;;;29.33;17.35;;;20.10;63.10;;;;;;5073170;28;20036;-14
2022/11/18 12:34:04;;;;;;;30.65;18.52;;;20.10;63.00;;;;;;5074794;28;20028;-15
2022/11/18 12:36:36;;;;;;;32.90;18.20;;;20.30;62.40;;;;;;5074607;28;20467;-14
2022/11/18 12:39:26;;;;;;;30.17;17.77;;;20.50;62.00;;;;;;5074625;28;20099;-16
2022/11/18 12:44:44;;;;;;;32.47;19.75;;;20.70;61.60;;;;;;5074447;28;20067;-15
2022/11/18 12:47:12;;;;;;;34.42;20.25;;;20.80;61.40;;;;;;5072474;28;20032;-14
2022/11/18 12:50:04;;;;;;;36.55;22.27;;;20.90;61.00;;;;;;5073875;28;20033;-14
2022/11/18 12:52:29;;;;;;;33.88;21.58;;;20.90;60.80;;;;;;5073693;28;20028;-16
2022/11/18 12:55:30;;;;;;;37.78;22.65;;;21.10;60.70;;;;;;5073805;28;20428;-15
2022/11/18 12:57:56;;;;;;;35.72;21.83;;;21.30;59.60;;;;;;5051578;28;20045;-15
2022/11/18 13:00:22;;;;;;;36.83;21.70;;;21.30;59.60;;;;;;5051725;28;20531;-15
2022/11/18 13:02:56;;;;;;;36.00;21.60;;;21.30;59.80;;;;;;5051750;28;20601;-16
2022/11/18 13:05:25;;;;;;;32.85;19.45;;;21.40;59.70;;;;;;5051662;28;20036;-14
2022/11/18 13:08:12;;;;;;;33.72;21.38;;;21.40;59.80;;;;;;5051947;28;20044;-16
2022/11/18 13:11:43;;;;;;;36.72;21.88;;;21.50;58.90;;;;;;5051656;28;20037;-15
2022/11/18 13:13:43;;;;;;;35.30;20.75;;;21.50;59.00;;;;;;5051344;28;20532;-15